Time;durP1;ratioP1;P1;durP2;ratioP2;P2;SDS_P1;SDS_P2;PMS_P1;PMS_P2;Temp;Humidity;BMP_temperature;BMP_pressure;BME280_temperature;BME280_humidity;BME280_pressure;Samples;Min_cycle;Max_cycle;Signal;HPM_P1;HPM_P2
2023/03/13 00:01:16;;;;;;;;;;;;;;;1.13;63.40;95414.69;5155330;27;1061;-61
2023/03/13 00:03:42;;;;;;;;;;;;;;;0.90;63.24;95416.97;5155653;27;1008;-60
2023/03/13 00:06:09;;;;;;;;;;;;;;;0.46;63.00;95419.72;5155408;27;1229;-61
2023/03/13 00:08:35;;;;;;;;;;;;;;;0.18;62.82;95424.84;5155427;27;1061;-61
2023/03/13 00:11:02;;;;;;;;;;;;;;;0.51;62.94;95425.53;5133238;27;1556;-60
2023/03/13 00:13:28;;;;;;;;;;;;;;;0.74;62.32;95427.63;5134455;27;1016;-60
2023/03/13 00:16:04;;;;;;;;;;;;;;;0.83;62.33;95430.63;5138322;27;1040;-60
2023/03/13 00:18:30;;;;;;;;;;;;;;;0.40;63.45;95428.84;5155309;27;1229;-60
2023/03/13 00:20:57;;;;;;;;;;;;;;;0.18;64.65;95435.38;5155181;27;1049;-60
2023/03/13 00:23:23;;;;;;;;;;;;;;;0.10;64.35;95434.16;5155001;27;1357;-61
2023/03/13 00:25:54;;;;;;;;;;;;;;;-0.07;64.28;95437.75;5143199;27;1324;-61
2023/03/13 00:28:20;;;;;;;;;;;;;;;-0.28;64.76;95442.47;5136910;27;960;-61
2023/03/13 00:30:46;;;;;;;;;;;;;;;-0.18;65.85;95432.28;5154584;27;1051;-61
2023/03/13 00:33:12;;;;;;;;;;;;;;;0.10;65.43;95437.63;5154685;27;1045;-60
2023/03/13 00:35:38;;;;;;;;;;;;;;;0.32;65.01;95434.56;5154986;27;956;-60
2023/03/13 00:38:04;;;;;;;;;;;;;;;0.44;64.76;95437.38;5155067;27;1984;-61
2023/03/13 00:40:30;;;;;;;;;;;;;;;0.44;63.88;95432.97;5154976;27;976;-61
2023/03/13 00:42:56;;;;;;;;;;;;;;;0.09;64.19;95429.81;5155153;27;1004;-61
2023/03/13 00:45:22;;;;;;;;;;;;;;;-0.45;64.72;95428.50;5154829;27;1040;-61
2023/03/13 00:47:48;;;;;;;;;;;;;;;-0.66;65.53;95419.25;5155189;27;1019;-61
2023/03/13 00:50:15;;;;;;;;;;;;;;;-0.72;66.73;95416.94;5154983;27;1004;-61
2023/03/13 00:52:41;;;;;;;;;;;;;;;-0.43;66.74;95423.19;5154850;27;905;-61
2023/03/13 00:55:07;;;;;;;;;;;;;;;-0.06;65.60;95424.53;5154817;27;1069;-61
2023/03/13 00:57:36;;;;;;;;;;;;;;;0.14;65.18;95425.97;5154927;27;1905;-61
2023/03/13 01:00:05;;;;;;;;;;;;;;;-0.14;64.96;95423.28;5154973;27;1232;-61
2023/03/13 01:02:31;;;;;;;;;;;;;;;-0.47;65.51;95426.94;5137487;27;1345;-61
2023/03/13 01:04:57;;;;;;;;;;;;;;;-0.52;65.76;95435.03;5159291;27;1096;-61
2023/03/13 01:07:23;;;;;;;;;;;;;;;-0.68;66.13;95429.00;5159136;27;1019;-61
2023/03/13 01:09:49;;;;;;;;;;;;;;;-0.61;66.78;95428.56;5159204;27;960;-61
2023/03/13 01:12:15;;;;;;;;;;;;;;;-0.64;67.25;95428.72;5144612;27;1530;-61
2023/03/13 01:14:41;;;;;;;;;;;;;;;-0.62;66.95;95436.50;5138032;27;1060;-61
2023/03/13 01:17:07;;;;;;;;;;;;;;;-0.69;67.24;95443.88;5138114;27;1902;-61
2023/03/13 01:19:32;;;;;;;;;;;;;;;-0.89;67.24;95441.50;5137689;27;1236;-61
2023/03/13 01:21:59;;;;;;;;;;;;;;;-1.13;68.55;95449.78;5138252;27;957;-61
2023/03/13 01:24:25;;;;;;;;;;;;;;;-1.08;67.90;95445.16;5137804;27;1115;-61
2023/03/13 01:26:51;;;;;;;;;;;;;;;-0.69;67.83;95440.41;5138050;27;1032;-61
2023/03/13 01:29:17;;;;;;;;;;;;;;;-0.57;67.11;95444.97;5119693;27;1064;-61
2023/03/13 01:31:43;;;;;;;;;;;;;;;-0.63;66.61;95447.94;5137928;27;1037;-61
2023/03/13 01:34:09;;;;;;;;;;;;;;;-0.69;67.16;95445.66;5137680;27;1084;-61
2023/03/13 01:36:36;;;;;;;;;;;;;;;-0.92;67.41;95449.56;5119400;27;1983;-61
2023/03/13 01:39:02;;;;;;;;;;;;;;;-1.00;67.79;95450.81;5137598;27;937;-61
2023/03/13 01:41:29;;;;;;;;;;;;;;;-1.17;67.63;95461.41;5137411;27;1080;-61
2023/03/13 01:43:55;;;;;;;;;;;;;;;-1.38;68.39;95455.50;5137400;27;1065;-61
2023/03/13 01:46:23;;;;;;;;;;;;;;;-1.43;68.67;95455.75;5137761;27;1017;-61
2023/03/13 01:48:55;;;;;;;;;;;;;;;-1.15;68.63;95445.56;5137435;27;1060;-61
2023/03/13 01:51:24;;;;;;;;;;;;;;;-0.80;68.57;95460.25;5119186;27;965;-61
2023/03/13 01:53:55;;;;;;;;;;;;;;;-0.57;67.28;95459.88;5119201;27;1004;-61
2023/03/13 01:56:29;;;;;;;;;;;;;;;-0.44;66.89;95459.13;5137430;27;1983;-61
2023/03/13 01:58:56;;;;;;;;;;;;;;;-0.86;66.66;95462.34;5137226;27;973;-61
2023/03/13 02:01:23;;;;;;;;;;;;;;;-1.21;67.91;95457.25;5137259;27;1036;-61
2023/03/13 02:03:50;;;;;;;;;;;;;;;-0.98;68.75;95462.09;5118887;27;1057;-61
2023/03/13 02:06:17;;;;;;;;;;;;;;;-0.79;68.67;95458.47;5137088;27;1016;-61
2023/03/13 02:08:49;;;;;;;;;;;;;;;-0.91;68.37;95457.38;5137020;27;1064;-61
2023/03/13 02:11:20;;;;;;;;;;;;;;;-0.97;68.08;95449.78;5137063;27;1529;-61
2023/03/13 02:13:48;;;;;;;;;;;;;;;-0.89;68.18;95457.25;5136856;27;1043;-61
2023/03/13 02:16:14;;;;;;;;;;;;;;;-0.98;68.28;95471.75;5136980;27;1990;-60
2023/03/13 02:18:40;;;;;;;;;;;;;;;-0.91;68.67;95461.75;5136713;27;1107;-60
2023/03/13 02:21:45;;;;;;;;;;;;;;;-1.22;68.11;95460.78;5136750;27;980;-60
2023/03/13 02:24:14;;;;;;;;;;;;;;;-1.70;69.53;95471.16;5053247;28;1302;-60
2023/03/13 02:26:40;;;;;;;;;;;;;;;-1.77;69.42;95475.00;5053264;28;1046;-59
2023/03/13 02:29:06;;;;;;;;;;;;;;;-2.00;70.01;95473.56;5094106;27;1132;-60
2023/03/13 02:31:32;;;;;;;;;;;;;;;-1.83;71.00;95478.78;5136516;27;1036;-60
2023/03/13 02:33:59;;;;;;;;;;;;;;;-1.65;70.11;95486.63;5136520;27;1021;-59
2023/03/13 02:36:26;;;;;;;;;;;;;;;-1.38;69.12;95482.59;5136562;27;1996;-59
2023/03/13 02:38:56;;;;;;;;;;;;;;;-1.21;68.86;95496.59;5136455;27;957;-60
2023/03/13 02:41:22;;;;;;;;;;;;;;;-1.18;69.64;95506.91;5136584;27;1036;-60
2023/03/13 02:43:48;;;;;;;;;;;;;;;-1.18;70.08;95512.16;5136328;27;1032;-60
2023/03/13 02:46:16;;;;;;;;;;;;;;;-1.42;68.87;95517.78;5136278;27;1060;-60
2023/03/13 02:48:46;;;;;;;;;;;;;;;-1.62;69.90;95521.41;5136295;27;1100;-59
2023/03/13 02:51:19;;;;;;;;;;;;;;;-1.76;70.10;95529.16;5136538;27;1066;-60
2023/03/13 02:53:47;;;;;;;;;;;;;;;-1.98;69.94;95526.75;5136422;27;973;-60
2023/03/13 02:56:14;;;;;;;;;;;;;;;-2.12;71.15;95534.44;5118049;27;1992;-60
2023/03/13 02:58:41;;;;;;;;;;;;;;;-2.05;70.76;95536.69;5136104;27;1051;-59
2023/03/13 03:01:07;;;;;;;;;;;;;;;-2.24;70.96;95535.88;5118048;27;1076;-60
2023/03/13 03:03:35;;;;;;;;;;;;;;;-2.22;72.45;95532.28;5117858;27;1051;-59
2023/03/13 03:06:02;;;;;;;;;;;;;;;-1.95;71.60;95526.59;5135905;27;1096;-59
2023/03/13 03:08:28;;;;;;;;;;;;;;;-2.13;71.10;95528.34;5135768;27;1100;-59
2023/03/13 03:10:54;;;;;;;;;;;;;;;-2.37;71.18;95533.00;5138508;27;1579;-59
2023/03/13 03:13:20;;;;;;;;;;;;;;;-2.42;72.21;95538.44;5138312;27;1051;-60
2023/03/13 03:15:46;;;;;;;;;;;;;;;-2.10;71.99;95535.22;5156708;27;1015;-60
2023/03/13 03:18:12;;;;;;;;;;;;;;;-2.03;70.93;95550.56;5156291;27;2383;-61
2023/03/13 03:20:38;;;;;;;;;;;;;;;-2.25;70.85;95553.38;5156619;27;1027;-61
2023/03/13 03:23:04;;;;;;;;;;;;;;;-2.40;71.54;95557.56;5156511;27;1060;-60
2023/03/13 03:25:30;;;;;;;;;;;;;;;-2.45;71.64;95556.09;5155825;27;977;-60
2023/03/13 03:27:56;;;;;;;;;;;;;;;-2.50;71.82;95563.28;5137830;27;1063;-60
2023/03/13 03:30:22;;;;;;;;;;;;;;;-2.69;72.17;95558.06;5156070;27;1140;-60
2023/03/13 03:32:48;;;;;;;;;;;;;;;-2.64;72.52;95567.41;5156088;27;1143;-61
2023/03/13 03:35:14;;;;;;;;;;;;;;;-2.23;72.54;95577.72;5156036;27;1053;-61
2023/03/13 03:37:40;;;;;;;;;;;;;;;-2.21;71.04;95578.50;5156122;27;1914;-61
2023/03/13 03:40:06;;;;;;;;;;;;;;;-2.55;71.57;95577.44;5155970;27;1092;-61
2023/03/13 03:42:33;;;;;;;;;;;;;;;-2.59;72.48;95575.91;5155748;27;1131;-61
2023/03/13 03:44:59;;;;;;;;;;;;;;;-2.51;72.53;95578.16;5155810;27;965;-61
2023/03/13 03:47:25;;;;;;;;;;;;;;;-2.17;72.50;95579.19;5155986;27;996;-61
2023/03/13 03:49:51;;;;;;;;;;;;;;;-1.99;72.31;95586.19;5155967;27;1173;-61
2023/03/13 03:52:17;;;;;;;;;;;;;;;-2.24;71.13;95597.00;5155824;27;980;-62
2023/03/13 03:54:43;;;;;;;;;;;;;;;-2.56;71.69;95591.47;5155765;27;1031;-61
2023/03/13 03:57:09;;;;;;;;;;;;;;;-2.44;72.15;95594.44;5137434;27;1894;-61
2023/03/13 03:59:35;;;;;;;;;;;;;;;-2.57;71.80;95595.00;5155763;27;956;-61
2023/03/13 04:02:01;;;;;;;;;;;;;;;-2.72;72.31;95605.34;5155552;27;1766;-61
2023/03/13 04:04:27;;;;;;;;;;;;;;;-2.69;72.64;95608.66;5155448;27;1132;-61
2023/03/13 04:06:53;;;;;;;;;;;;;;;-2.47;72.95;95618.16;5155435;27;1100;-61
2023/03/13 04:09:19;;;;;;;;;;;;;;;-2.33;71.60;95614.88;5137053;27;1037;-61
2023/03/13 04:11:45;;;;;;;;;;;;;;;-2.59;71.67;95622.19;5145210;27;1651;-61
2023/03/13 04:14:11;;;;;;;;;;;;;;;-2.47;71.56;95626.00;5134986;27;1019;-61
2023/03/13 04:16:37;;;;;;;;;;;;;;;-2.47;72.34;95620.78;5134457;27;2016;-61
2023/03/13 04:19:03;;;;;;;;;;;;;;;-2.46;71.56;95623.31;5134513;27;1080;-61
2023/03/13 04:21:29;;;;;;;;;;;;;;;-2.63;71.52;95636.34;5134549;27;969;-61
2023/03/13 04:23:55;;;;;;;;;;;;;;;-2.71;72.12;95636.69;5134603;27;1051;-61
2023/03/13 04:26:21;;;;;;;;;;;;;;;-2.65;72.54;95628.56;5134292;27;1524;-61
2023/03/13 04:28:47;;;;;;;;;;;;;;;-2.96;71.81;95631.69;5116240;27;1117;-61
2023/03/13 04:31:13;;;;;;;;;;;;;;;-3.01;72.52;95626.66;5134518;27;1060;-61
2023/03/13 04:33:39;;;;;;;;;;;;;;;-2.77;72.88;95639.56;5134369;27;1061;-61
2023/03/13 04:36:05;;;;;;;;;;;;;;;-2.58;72.51;95644.81;5134056;27;2000;-61
2023/03/13 04:38:31;;;;;;;;;;;;;;;-2.76;71.01;95644.72;5133628;27;1044;-60
2023/03/13 04:40:57;;;;;;;;;;;;;;;-2.58;72.43;95639.56;5134184;27;1071;-61
2023/03/13 04:43:23;;;;;;;;;;;;;;;-2.47;71.18;95645.19;5134159;27;1124;-61
2023/03/13 04:45:53;;;;;;;;;;;;;;;-2.92;71.50;95654.19;5134523;27;1047;-60
2023/03/13 04:48:19;;;;;;;;;;;;;;;-2.79;72.64;95646.63;5134142;28;1100;-60
2023/03/13 04:50:47;;;;;;;;;;;;;;;-2.50;72.86;95652.31;5134027;28;1056;-61
2023/03/13 04:53:13;;;;;;;;;;;;;;;-2.57;71.81;95655.22;5134133;28;1032;-61
2023/03/13 04:55:39;;;;;;;;;;;;;;;-2.68;71.63;95662.72;5134131;28;1240;-61
2023/03/13 04:58:05;;;;;;;;;;;;;;;-2.61;71.83;95664.16;5133922;28;1898;-61
2023/03/13 05:00:31;;;;;;;;;;;;;;;-2.91;71.91;95670.75;5134163;28;1019;-59
2023/03/13 05:02:57;;;;;;;;;;;;;;;-3.05;72.15;95677.44;5134004;28;1100;-58
2023/03/13 05:05:23;;;;;;;;;;;;;;;-2.79;73.38;95678.91;5133880;28;1088;-60
2023/03/13 05:07:49;;;;;;;;;;;;;;;-2.69;72.45;95681.09;5134164;28;1299;-60
2023/03/13 05:10:15;;;;;;;;;;;;;;;-2.59;71.95;95670.16;5134095;28;1004;-59
2023/03/13 05:12:42;;;;;;;;;;;;;;;-2.68;71.87;95681.03;5151888;27;1526;-57
2023/03/13 05:15:08;;;;;;;;;;;;;;;-2.46;71.66;95685.34;5154674;27;1008;-57
2023/03/13 05:17:34;;;;;;;;;;;;;;;-2.08;70.77;95680.94;5136362;27;1910;-60
2023/03/13 05:20:00;;;;;;;;;;;;;;;-1.60;70.13;95691.78;5154519;27;1229;-59
2023/03/13 05:22:26;;;;;;;;;;;;;;;-1.53;69.37;95690.56;5154606;27;1059;-59
2023/03/13 05:24:53;;;;;;;;;;;;;;;-1.36;69.06;95688.91;5154369;27;1049;-59
2023/03/13 05:27:18;;;;;;;;;;;;;;;-1.34;68.45;95689.69;5154381;27;1035;-59
2023/03/13 05:29:44;;;;;;;;;;;;;;;-1.56;68.18;95703.81;5154703;27;981;-59
2023/03/13 05:32:10;;;;;;;;;;;;;;;-1.51;68.46;95708.88;5154346;27;1108;-59
2023/03/13 05:34:36;;;;;;;;;;;;;;;-1.35;67.80;95714.19;5154578;27;1009;-59
2023/03/13 05:37:03;;;;;;;;;;;;;;;-0.94;67.41;95709.53;5154550;27;1905;-59
2023/03/13 05:39:29;;;;;;;;;;;;;;;-0.41;66.61;95699.81;5154304;27;1119;-60
2023/03/13 05:41:55;;;;;;;;;;;;;;;-0.10;64.69;95703.41;5135951;27;957;-59
2023/03/13 05:44:21;;;;;;;;;;;;;;;0.15;64.38;95698.53;5154547;27;976;-59
2023/03/13 05:46:47;;;;;;;;;;;;;;;0.45;63.55;95695.09;5154608;27;961;-59
2023/03/13 05:49:13;;;;;;;;;;;;;;;0.57;63.93;95704.97;5156624;27;968;-59
2023/03/13 05:51:39;;;;;;;;;;;;;;;0.81;63.44;95709.75;5139941;27;1043;-59
2023/03/13 05:54:05;;;;;;;;;;;;;;;1.34;61.28;95720.72;5158075;27;1193;-60
2023/03/13 05:56:31;;;;;;;;;;;;;;;1.79;59.44;95720.69;5157850;27;1925;-59
2023/03/13 05:58:57;;;;;;;;;;;;;;;2.74;57.46;95725.28;5158232;27;1004;-62
2023/03/13 06:01:23;;;;;;;;;;;;;;;4.37;52.68;95735.41;5157900;27;1068;-61
2023/03/13 06:03:49;;;;;;;;;;;;;;;7.07;45.32;95752.13;5157985;27;1052;-58
2023/03/13 06:06:15;;;;;;;;;;;;;;;9.08;38.35;95766.16;5157724;27;1052;-60
2023/03/13 06:08:41;;;;;;;;;;;;;;;10.47;36.05;95778.38;5157913;27;1035;-60
2023/03/13 06:11:07;;;;;;;;;;;;;;;11.29;34.07;95792.84;5152983;27;1567;-59
2023/03/13 06:13:33;;;;;;;;;;;;;;;12.48;33.91;95800.66;5118813;27;984;-59
2023/03/13 06:16:00;;;;;;;;;;;;;;;13.25;32.15;95811.47;5136923;27;1128;-59
2023/03/13 06:18:26;;;;;;;;;;;;;;;13.25;31.86;95816.84;5136592;27;1969;-59
2023/03/13 06:20:57;;;;;;;;;;;;;;;13.03;31.47;95821.78;5118685;27;1033;-59
2023/03/13 06:23:23;;;;;;;;;;;;;;;11.99;32.14;95821.69;5137135;27;998;-59
2023/03/13 06:25:49;;;;;;;;;;;;;;;11.46;33.68;95813.44;5118468;27;1147;-59
2023/03/13 06:28:15;;;;;;;;;;;;;;;9.75;36.16;95800.13;5136636;27;1057;-58
2023/03/13 06:30:42;;;;;;;;;;;;;;;8.32;39.05;95791.34;5118735;27;960;-59
2023/03/13 06:33:08;;;;;;;;;;;;;;;7.51;40.97;95785.75;5118676;27;966;-59
2023/03/13 06:35:34;;;;;;;;;;;;;;;7.09;42.56;95780.28;5136526;27;1132;-58
2023/03/13 06:38:00;;;;;;;;;;;;;;;7.03;42.57;95776.31;5118217;27;1989;-59
2023/03/13 06:40:26;;;;;;;;;;;;;;;7.53;42.87;95773.16;5136305;27;1053;-59
2023/03/13 06:42:52;;;;;;;;;;;;;;;7.55;41.87;95778.34;5118284;27;1084;-60
2023/03/13 06:45:18;;;;;;;;;;;;;;;7.26;42.12;95776.25;5136626;27;1067;-60
2023/03/13 06:47:45;;;;;;;;;;;;;;;7.12;42.32;95771.22;5118169;27;1057;-60
2023/03/13 06:50:11;;;;;;;;;;;;;;;6.61;43.28;95762.00;5118392;27;1031;-60
2023/03/13 06:52:37;;;;;;;;;;;;;;;6.60;44.99;95760.28;5136319;27;977;-60
2023/03/13 06:55:03;;;;;;;;;;;;;;;7.04;42.99;95766.53;5136396;27;965;-61
2023/03/13 06:57:29;;;;;;;;;;;;;;;7.18;41.97;95763.59;5118018;27;1913;-61
2023/03/13 06:59:55;;;;;;;;;;;;;;;6.99;41.57;95766.06;5135251;27;973;-61
2023/03/13 07:02:22;;;;;;;;;;;;;;;7.24;43.34;95764.91;5135956;27;1108;-61
2023/03/13 07:04:48;;;;;;;;;;;;;;;7.37;42.28;95770.91;5136158;27;993;-61
2023/03/13 07:07:14;;;;;;;;;;;;;;;7.57;42.11;95763.94;5135745;27;1116;-61
2023/03/13 07:09:40;;;;;;;;;;;;;;;8.03;42.36;95769.88;5117573;27;1041;-62
2023/03/13 07:12:06;;;;;;;;;;;;;;;7.96;41.39;95758.88;5148780;27;1743;-62
2023/03/13 07:14:32;;;;;;;;;;;;;;;8.36;41.41;95759.97;5156582;27;1132;-62
2023/03/13 07:16:58;;;;;;;;;;;;;;;8.43;41.17;95760.31;5156378;27;2000;-62
2023/03/13 07:19:26;;;;;;;;;;;;;;;8.69;40.58;95764.22;5156168;27;1078;-63
2023/03/13 07:21:52;;;;;;;;;;;;;;;8.48;40.56;95763.41;5156456;27;969;-62
2023/03/13 07:24:18;;;;;;;;;;;;;;;8.46;41.26;95768.03;5156428;27;949;-62
2023/03/13 07:26:44;;;;;;;;;;;;;;;9.06;39.82;95763.63;5156561;27;969;-63
2023/03/13 07:29:10;;;;;;;;;;;;;;;9.09;41.14;95765.19;5156234;27;1017;-63
2023/03/13 07:31:38;;;;;;;;;;;;;;;9.34;40.68;95767.31;5156173;27;1127;-57
2023/03/13 07:34:04;;;;;;;;;;;;;;;9.60;39.77;95765.94;5141958;27;2885;-61
2023/03/13 07:36:30;;;;;;;;;;;;;;;9.42;39.22;95766.63;5135208;27;1984;-62
2023/03/13 07:38:56;;;;;;;;;;;;;;;8.79;39.94;95762.44;5135543;27;1028;-62
2023/03/13 07:41:22;;;;;;;;;;;;;;;9.06;39.66;95752.13;5135201;27;1233;-62
2023/03/13 07:43:48;;;;;;;;;;;;;;;9.16;39.27;95756.50;5135545;27;1024;-59
2023/03/13 07:46:19;;;;;;;;;;;;;;;9.46;38.04;95754.69;5135420;27;1060;-65
2023/03/13 07:48:45;;;;;;;;;;;;;;;9.93;38.52;95746.81;5135045;27;1101;-64
2023/03/13 07:51:13;;;;;;;;;;;;;;;10.11;37.71;95754.09;5135039;27;1816;-66
2023/03/13 07:53:39;;;;;;;;;;;;;;;10.18;38.13;95749.88;5135260;27;1044;-65
2023/03/13 07:56:12;;;;;;;;;;;;;;;10.44;37.81;95755.47;5133498;27;2496;-65
2023/03/13 07:58:39;;;;;;;;;;;;;;;10.15;36.93;95755.53;5149250;27;3021;-66
2023/03/13 08:01:21;;;;;;;;;;;;;;;10.10;36.74;95753.25;5155605;27;1119;-67
2023/03/13 08:03:49;;;;;;;;;;;;;;;9.78;36.85;95758.91;5155637;27;1048;-65
2023/03/13 08:06:17;;;;;;;;;;;;;;;10.13;37.26;95757.47;5155444;27;1247;-65
2023/03/13 08:08:43;;;;;;;;;;;;;;;10.18;36.54;95751.72;5155737;27;1016;-64
2023/03/13 08:11:11;;;;;;;;;;;;;;;10.21;36.65;95744.25;5150876;27;2952;-66
2023/03/13 08:13:37;;;;;;;;;;;;;;;10.54;35.66;95755.44;5155391;27;1256;-63
2023/03/13 08:16:08;;;;;;;;;;;;;;;10.67;35.00;95753.25;5155281;27;1032;-61
2023/03/13 08:18:35;;;;;;;;;;;;;;;11.06;34.01;95760.25;5154894;27;1905;-61
2023/03/13 08:21:11;;;;;;;;;;;;;;;11.62;32.58;95771.75;5155350;27;1023;-61
2023/03/13 08:23:38;;;;;;;;;;;;;;;11.93;33.63;95766.03;5155080;27;1084;-61
2023/03/13 08:26:04;;;;;;;;;;;;;;;11.84;32.78;95771.31;5154887;27;1123;-61
2023/03/13 08:28:30;;;;;;;;;;;;;;;11.84;34.04;95765.94;5154302;27;1111;-61
2023/03/13 08:30:56;;;;;;;;;;;;;;;12.31;33.91;95764.81;5154807;27;1039;-61
2023/03/13 08:33:22;;;;;;;;;;;;;;;11.89;33.33;95770.81;5154788;27;1169;-60
2023/03/13 08:35:48;;;;;;;;;;;;;;;11.94;32.87;95771.25;5154863;27;1049;-61
2023/03/13 08:38:14;;;;;;;;;;;;;;;11.93;33.70;95766.03;5154980;27;1996;-61
2023/03/13 08:40:40;;;;;;;;;;;;;;;12.61;30.96;95763.50;5154851;27;1052;-61
2023/03/13 08:43:06;;;;;;;;;;;;;;;12.60;29.90;95763.69;5154800;27;1041;-61
2023/03/13 08:45:32;;;;;;;;;;;;;;;12.40;32.92;95766.56;5154804;27;961;-61
2023/03/13 08:47:58;;;;;;;;;;;;;;;12.41;31.52;95773.63;5154771;27;1004;-61
2023/03/13 08:50:24;;;;;;;;;;;;;;;12.75;30.72;95769.28;5154947;27;1032;-61
2023/03/13 08:52:50;;;;;;;;;;;;;;;12.82;32.17;95771.16;5154896;27;1053;-61
2023/03/13 08:55:16;;;;;;;;;;;;;;;12.55;31.21;95774.88;5154878;27;1016;-61
2023/03/13 08:57:42;;;;;;;;;;;;;;;12.22;31.28;95782.72;5154765;27;1992;-61
2023/03/13 09:00:10;;;;;;;;;;;;;;;12.51;31.67;95778.88;5155038;27;1051;-61
2023/03/13 09:02:36;;;;;;;;;;;;;;;12.82;32.10;95773.84;5154490;27;953;-61
2023/03/13 09:05:02;;;;;;;;;;;;;;;13.19;30.46;95774.53;5154861;27;1059;-61
2023/03/13 09:07:28;;;;;;;;;;;;;;;13.10;30.71;95768.28;5154498;27;1135;-61
2023/03/13 09:09:54;;;;;;;;;;;;;;;12.96;28.26;95772.44;5154847;27;1035;-61
2023/03/13 09:12:20;;;;;;;;;;;;;;;12.99;29.10;95771.25;5139609;27;1271;-61
2023/03/13 09:14:46;;;;;;;;;;;;;;;13.21;28.10;95783.28;5133753;28;1053;-61
2023/03/13 09:17:12;;;;;;;;;;;;;;;13.61;27.87;95782.59;5133588;28;1909;-62
2023/03/13 09:19:39;;;;;;;;;;;;;;;13.73;27.45;95772.34;5133664;28;1229;-62
2023/03/13 09:22:05;;;;;;;;;;;;;;;13.65;27.03;95777.72;5133957;28;1012;-61
2023/03/13 09:24:31;;;;;;;;;;;;;;;13.82;26.46;95774.06;5136707;27;1001;-63
2023/03/13 09:26:57;;;;;;;;;;;;;;;14.20;25.72;95771.72;5137758;27;1040;-62
2023/03/13 09:29:23;;;;;;;;;;;;;;;14.40;24.29;95774.91;5137891;27;1110;-61
2023/03/13 09:31:49;;;;;;;;;;;;;;;14.26;26.58;95767.50;5137612;27;1045;-61
2023/03/13 09:34:15;;;;;;;;;;;;;;;13.58;26.48;95768.63;5119257;27;1013;-61
2023/03/13 09:36:41;;;;;;;;;;;;;;;13.54;26.98;95765.44;5137716;27;1996;-61
2023/03/13 09:39:07;;;;;;;;;;;;;;;13.04;25.45;95766.25;5137783;27;993;-61
2023/03/13 09:41:35;;;;;;;;;;;;;;;12.82;27.52;95757.75;5119425;27;1043;-61
2023/03/13 09:44:13;;;;;;;;;;;;;;;13.00;26.56;95746.09;5137454;27;1041;-61
2023/03/13 09:46:44;;;;;;;;;;;;;;;12.84;26.97;95746.84;5136896;27;1115;-60
2023/03/13 09:49:12;;;;;;;;;;;;;;;12.91;26.48;95755.97;5137315;27;976;-60
2023/03/13 09:51:41;;;;;;;;;;;;;;;13.03;25.28;95751.13;5137540;27;1051;-60
2023/03/13 09:54:16;;;;;;;;;;;;;;;13.84;26.71;95752.38;5137615;27;1060;-61
2023/03/13 09:57:05;;;;;;;;;;;;;;;13.96;28.37;95743.00;5137599;27;2003;-61
2023/03/13 09:59:47;;;;;;;;;;;;;;;14.05;28.52;95735.75;5123833;27;1312;-61
2023/03/13 10:02:22;;;;;;;;;;;;;;;14.28;26.06;95737.75;5137225;27;965;-61
2023/03/13 10:04:52;;;;;;;;;;;;;;;13.63;26.32;95737.56;5137054;27;1065;-61
2023/03/13 10:07:20;;;;;;;;;;;;;;;13.26;24.45;95738.81;5136999;27;1051;-61
2023/03/13 10:09:46;;;;;;;;;;;;;;;13.36;25.72;95733.34;5136871;27;1049;-60
2023/03/13 10:12:17;;;;;;;;;;;;;;;13.69;26.32;95735.25;5150908;27;1299;-61
2023/03/13 10:14:48;;;;;;;;;;;;;;;13.92;27.15;95722.81;5157825;27;1044;-60
2023/03/13 10:17:34;;;;;;;;;;;;;;;13.29;27.06;95714.31;5157411;27;1986;-61
2023/03/13 10:20:08;;;;;;;;;;;;;;;13.00;27.10;95717.41;5157315;27;1399;-61
2023/03/13 10:22:36;;;;;;;;;;;;;;;13.02;27.92;95710.03;5157368;27;1104;-61
2023/03/13 10:25:08;;;;;;;;;;;;;;;13.35;29.18;95702.09;5157699;27;1036;-62
2023/03/13 10:27:47;;;;;;;;;;;;;;;13.55;27.71;95699.13;5157648;27;1015;-62
2023/03/13 10:30:37;;;;;;;;;;;;;;;13.60;27.83;95696.75;5157309;27;1043;-62
2023/03/13 10:33:06;;;;;;;;;;;;;;;13.93;26.69;95696.78;5157286;27;1033;-62
2023/03/13 10:35:34;;;;;;;;;;;;;;;14.18;28.77;95676.09;5157200;27;1059;-61
2023/03/13 10:38:08;;;;;;;;;;;;;;;13.48;26.82;95691.72;5157099;27;1910;-59
2023/03/13 10:40:35;;;;;;;;;;;;;;;13.37;28.30;95692.03;5157192;27;1052;-62
2023/03/13 10:43:03;;;;;;;;;;;;;;;13.73;28.94;95675.59;5138551;27;1115;-61
2023/03/13 10:45:34;;;;;;;;;;;;;;;13.63;28.55;95675.78;5138499;27;1107;-61
2023/03/13 10:48:02;;;;;;;;;;;;;;;13.61;27.75;95668.91;5157267;27;985;-61
2023/03/13 10:50:31;;;;;;;;;;;;;;;13.80;29.17;95668.56;5156967;27;977;-61
2023/03/13 10:53:06;;;;;;;;;;;;;;;14.01;26.97;95669.91;5156788;27;1124;-61
2023/03/13 10:55:32;;;;;;;;;;;;;;;13.66;26.06;95664.69;5156629;27;1040;-62
2023/03/13 10:58:02;;;;;;;;;;;;;;;13.71;25.98;95664.19;5156952;27;1987;-62
2023/03/13 11:00:39;;;;;;;;;;;;;;;14.52;27.64;95653.50;5156808;27;1048;-62
2023/03/13 11:03:13;;;;;;;;;;;;;;;14.64;27.57;95644.91;5156802;27;1027;-62
2023/03/13 11:05:41;;;;;;;;;;;;;;;14.51;28.27;95639.16;5156625;27;1064;-62
2023/03/13 11:08:39;;;;;;;;;;;;;;;14.57;29.74;95638.53;5156734;27;1024;-62
2023/03/13 11:11:15;;;;;;;;;;;;;;;14.33;26.78;95635.88;5095374;27;1330;-62
2023/03/13 11:13:42;;;;;;;;;;;;;;;13.75;26.36;95633.28;5136090;27;980;-62
2023/03/13 11:16:28;;;;;;;;;;;;;;;14.17;27.66;95626.84;5117370;27;1113;-62
2023/03/13 11:19:10;;;;;;;;;;;;;;;14.64;27.37;95625.19;5135428;27;1097;-62
2023/03/13 11:21:36;;;;;;;;;;;;;;;14.50;28.49;95621.38;5117580;27;1055;-61
2023/03/13 11:24:14;;;;;;;;;;;;;;;14.60;26.87;95616.63;5135544;27;1048;-62
2023/03/13 11:26:46;;;;;;;;;;;;;;;14.05;26.77;95612.09;5135565;27;1058;-61
2023/03/13 11:29:18;;;;;;;;;;;;;;;13.50;28.58;95602.06;5135621;27;1012;-61
2023/03/13 11:31:55;;;;;;;;;;;;;;;13.18;26.68;95599.16;5135483;27;1035;-61
2023/03/13 11:34:27;;;;;;;;;;;;;;;13.57;29.69;95590.47;5135205;27;1053;-61
2023/03/13 11:37:01;;;;;;;;;;;;;;;13.89;29.57;95587.91;5135435;27;2001;-61
2023/03/13 11:39:30;;;;;;;;;;;;;;;13.72;26.76;95595.19;5135071;27;1092;-61
2023/03/13 11:42:02;;;;;;;;;;;;;;;13.48;27.57;95584.25;5117019;27;1028;-61
2023/03/13 11:44:37;;;;;;;;;;;;;;;13.97;28.24;95583.38;5135470;27;960;-62
2023/03/13 11:47:03;;;;;;;;;;;;;;;14.06;27.68;95573.44;5134768;27;1035;-61
2023/03/13 11:49:36;;;;;;;;;;;;;;;13.99;28.11;95569.75;5135110;27;1119;-61
2023/03/13 11:52:31;;;;;;;;;;;;;;;13.83;27.40;95563.41;5135299;27;981;-61
2023/03/13 11:55:19;;;;;;;;;;;;;;;13.38;27.03;95564.81;5044290;27;1165;-62
2023/03/13 11:58:03;;;;;;;;;;;;;;;13.29;27.40;95553.19;5134933;27;1986;-61
2023/03/13 12:00:39;;;;;;;;;;;;;;;13.48;27.04;95543.97;5134783;27;1008;-61
2023/03/13 12:03:05;;;;;;;;;;;;;;;13.36;26.97;95531.91;5135353;27;1036;-61
2023/03/13 12:05:51;;;;;;;;;;;;;;;13.42;28.90;95530.38;5134955;27;1040;-62
2023/03/13 12:08:17;;;;;;;;;;;;;;;13.60;29.38;95524.81;5134451;27;1045;-62
2023/03/13 12:10:46;;;;;;;;;;;;;;;13.86;29.10;95521.91;5135626;27;1339;-62
2023/03/13 12:13:15;;;;;;;;;;;;;;;14.05;30.07;95501.84;5155086;27;1112;-61
2023/03/13 12:15:53;;;;;;;;;;;;;;;14.30;29.81;95507.94;5155564;27;1044;-60
2023/03/13 12:18:22;;;;;;;;;;;;;;;14.36;29.02;95504.59;5154944;27;1973;-62
2023/03/13 12:21:06;;;;;;;;;;;;;;;14.24;29.10;95506.78;5155122;27;1104;-61
2023/03/13 12:23:38;;;;;;;;;;;;;;;13.91;27.79;95505.28;5154995;27;1224;-62
2023/03/13 12:26:15;;;;;;;;;;;;;;;13.47;27.83;95506.56;5155327;27;981;-61
2023/03/13 12:28:50;;;;;;;;;;;;;;;13.60;30.85;95498.81;5155131;27;1103;-62
2023/03/13 12:31:16;;;;;;;;;;;;;;;13.89;31.18;95493.81;5155081;27;968;-59
2023/03/13 12:33:45;;;;;;;;;;;;;;;14.04;30.38;95492.94;5154982;27;1108;-59
2023/03/13 12:36:21;;;;;;;;;;;;;;;14.04;29.51;95487.56;5155139;27;1040;-59
2023/03/13 12:38:57;;;;;;;;;;;;;;;14.02;28.22;95486.09;5155146;27;1922;-59
2023/03/13 12:41:52;;;;;;;;;;;;;;;13.47;29.80;95493.94;5136827;27;997;-60
2023/03/13 12:44:19;;;;;;;;;;;;;;;13.65;30.19;95485.66;5132706;27;1410;-59
2023/03/13 12:47:03;;;;;;;;;;;;;;;13.86;30.05;95479.72;5154935;27;1053;-59
2023/03/13 12:49:40;;;;;;;;;;;;;;;13.79;28.18;95485.97;5155071;27;992;-58
2023/03/13 12:52:06;;;;;;;;;;;;;;;13.96;30.63;95482.25;5155242;27;977;-58
2023/03/13 12:54:45;;;;;;;;;;;;;;;14.08;31.17;95477.31;5154740;27;1044;-60
2023/03/13 12:57:43;;;;;;;;;;;;;;;13.90;29.47;95482.91;5155009;27;1979;-61
2023/03/13 13:00:14;;;;;;;;;;;;;;;13.79;28.72;95481.47;5091616;27;1498;-59
2023/03/13 13:02:40;;;;;;;;;;;;;;;13.96;30.46;95478.69;5138390;27;944;-60
2023/03/13 13:05:16;;;;;;;;;;;;;;;13.99;29.98;95470.28;5138337;27;1040;-61
2023/03/13 13:07:51;;;;;;;;;;;;;;;14.06;30.19;95463.22;5138157;27;1511;-61